Weather at Minske Field

Public forecast

Using degrees Fahrenheit for public forecast. Weather courtesy of forecast.io.

Closest aviation weather report (METAR) to Minske Field

Closest report is Princeton Municipal Airport, 5.8 nm (10.7 km) ESE.

2024/07/25 09:35 (retrieved 13 minutes ago)

KPNM 250935Z AUTO 00000KT 3/4SM BR VV005 11/11 A3024 RMK AO2 VIS 1/4V5

Closest aviation forecast (TAF) to Minske Field

Closest forecast is Saint Cloud Regional Airport, 13.6 nm (25.1 km) W.

2024/07/25 06:22 (retrieved 3 hours ago)

TAF KSTC 250520Z 2506/2606 11003KT P6SM FEW200 FM251400 15008KT P6SM SKC FM260000 14005KT P6SM SKC